Time;durP1;ratioP1;P1;durP2;ratioP2;P2;SDS_P1;SDS_P2;PMS_P1;PMS_P2;Temp;Humidity;BMP_temperature;BMP_pressure;BME280_temperature;BME280_humidity;BME280_pressure;Samples;Min_cycle;Max_cycle;Signal;HPM_P1;HPM_P2
2022/04/27 00:02:18;;;;;;;9.48;5.85;;;;;;;9.80;57.79;102290.16;5073440;28;20037;-62
2022/04/27 00:04:43;;;;;;;8.73;5.78;;;;;;;9.74;58.72;102289.97;5073162;28;20104;-62
2022/04/27 00:07:09;;;;;;;8.68;5.50;;;;;;;9.74;58.14;102290.84;5073300;28;20029;-62
2022/04/27 00:09:35;;;;;;;13.07;5.93;;;;;;;9.71;58.80;102292.47;5073387;28;20029;-62
2022/04/27 00:12:01;;;;;;;8.73;5.57;;;;;;;9.65;59.13;102290.50;5055035;28;20017;-61
2022/04/27 00:14:31;;;;;;;9.10;5.75;;;;;;;9.53;59.24;102285.66;5073427;28;20036;-62
2022/04/27 00:16:57;;;;;;;10.02;5.55;;;;;;;9.37;59.62;102285.00;5073234;28;20028;-62
2022/04/27 00:19:27;;;;;;;11.13;5.28;;;;;;;9.32;59.76;102283.94;5073024;28;20546;-62
2022/04/27 00:21:53;;;;;;;13.27;5.90;;;;;;;9.34;59.50;102283.19;5073093;28;20473;-62
2022/04/27 00:24:18;;;;;;;9.13;5.72;;;;;;;9.30;59.00;102280.38;5073173;28;20150;-61
2022/04/27 00:26:45;;;;;;;9.48;5.85;;;;;;;9.30;59.18;102283.00;5072848;28;20025;-62
2022/04/27 00:29:11;;;;;;;9.57;5.57;;;;;;;9.25;59.59;102281.06;5073188;28;20029;-62
2022/04/27 00:31:36;;;;;;;9.95;5.50;;;;;;;9.27;59.28;102289.94;5072817;28;20516;-62
2022/04/27 00:34:02;;;;;;;10.73;5.85;;;;;;;9.24;59.29;102287.16;5073018;28;20573;-62
2022/04/27 00:36:28;;;;;;;9.43;5.80;;;;;;;9.23;59.67;102289.75;5072976;28;20042;-62
2022/04/27 00:38:53;;;;;;;10.18;6.13;;;;;;;9.19;60.47;102294.00;5072986;28;20020;-61
2022/04/27 00:41:19;;;;;;;9.57;5.82;;;;;;;9.10;60.20;102295.38;5072713;28;20029;-62
2022/04/27 00:43:44;;;;;;;9.38;5.70;;;;;;;9.05;59.91;102289.94;5073047;28;20354;-62
2022/04/27 00:46:10;;;;;;;9.73;5.97;;;;;;;8.96;60.15;102293.09;5074647;28;20029;-62
2022/04/27 00:48:36;;;;;;;11.35;6.28;;;;;;;8.93;60.49;102287.69;5077171;28;20158;-62
2022/04/27 00:51:03;;;;;;;9.73;6.43;;;;;;;8.87;60.68;102287.47;5076959;28;20029;-62
2022/04/27 00:53:29;;;;;;;8.15;5.88;;;;;;;8.90;60.04;102292.84;5076918;28;20473;-62
2022/04/27 00:55:56;;;;;;;8.68;5.82;;;;;;;8.86;60.34;102293.53;5076607;28;20078;-62
2022/04/27 00:58:24;;;;;;;8.43;5.78;;;;;;;8.83;59.87;102292.53;5058674;28;20031;-62
2022/04/27 01:00:50;;;;;;;10.30;6.13;;;;;;;8.82;60.41;102291.63;5076567;28;20024;-61
2022/04/27 01:03:16;;;;;;;8.68;5.70;;;;;;;8.77;60.07;102285.25;5076858;28;20490;-61
2022/04/27 01:05:41;;;;;;;9.40;6.18;;;;;;;8.70;60.52;102286.75;5076868;28;20493;-61
2022/04/27 01:08:06;;;;;;;8.88;6.05;;;;;;;8.65;60.54;102296.22;5076544;28;20466;-61
2022/04/27 01:10:32;;;;;;;13.07;6.28;;;;;;;8.58;60.87;102291.50;5076393;28;20559;-62
2022/04/27 01:12:59;;;;;;;11.82;6.25;;;;;;;8.42;61.63;102287.31;5076256;28;20485;-62
2022/04/27 01:15:35;;;;;;;10.43;6.55;;;;;;;8.44;61.76;102305.84;5076425;28;20024;-61
2022/04/27 01:18:01;;;;;;;12.15;5.97;;;;;;;8.49;61.84;102306.94;5076481;28;20095;-61
2022/04/27 01:20:32;;;;;;;12.63;6.18;;;;;;;8.50;60.95;102311.38;5076221;28;20097;-62
2022/04/27 01:22:57;;;;;;;12.30;6.35;;;;;;;8.44;61.61;102308.47;5076294;28;20051;-61
2022/04/27 01:25:22;;;;;;;12.05;6.50;;;;;;;8.42;61.95;102312.78;5076079;28;20028;-62
2022/04/27 01:27:48;;;;;;;12.63;6.15;;;;;;;8.33;62.04;102312.34;5076079;28;20424;-61
2022/04/27 01:30:13;;;;;;;8.32;5.95;;;;;;;8.29;62.48;102317.47;5075964;28;20052;-61
2022/04/27 01:32:38;;;;;;;12.32;6.63;;;;;;;8.21;62.85;102326.75;5076129;28;20040;-61
2022/04/27 01:35:04;;;;;;;11.85;6.25;;;;;;;8.28;62.37;102327.94;5076084;28;20064;-62
2022/04/27 01:40:13;;;;;;;13.75;6.78;;;;;;;8.20;62.76;102319.69;5075838;28;20075;-62
2022/04/27 01:42:38;;;;;;;10.13;6.70;;;;;;;8.11;63.14;102319.31;5075838;28;20469;-62
2022/04/27 01:45:04;;;;;;;11.73;6.30;;;;;;;8.11;62.37;102323.66;5075939;28;20025;-62
2022/04/27 01:47:30;;;;;;;11.07;6.35;;;;;;;8.08;63.11;102326.16;5075747;28;20017;-62
2022/04/27 01:49:55;;;;;;;9.52;6.22;;;;;;;8.02;64.02;102324.16;5076037;28;20028;-62
2022/04/27 01:55:05;;;;;;;11.02;6.53;;;;;;;8.14;63.20;102326.44;5075673;28;20120;-61
2022/04/27 01:57:30;;;;;;;12.18;6.82;;;;;;;8.14;62.79;102321.19;5075507;28;20108;-61
2022/04/27 01:59:56;;;;;;;9.23;6.28;;;;;;;8.20;62.90;102327.59;5075663;28;20056;-61
2022/04/27 02:02:22;;;;;;;12.32;6.65;;;;;;;8.27;62.11;102316.50;5075551;28;20036;-61
2022/04/27 02:04:47;;;;;;;11.90;6.95;;;;;;;8.21;62.23;102326.75;5075485;28;20035;-61
2022/04/27 02:07:12;;;;;;;9.48;6.60;;;;;;;8.10;62.45;102325.41;5075411;28;20035;-61
2022/04/27 02:09:38;;;;;;;10.48;6.53;;;;;;;8.12;62.79;102330.72;5075305;28;20386;-62
2022/04/27 02:12:05;;;;;;;10.88;6.28;;;;;;;8.15;62.79;102328.25;5075787;28;20027;-61
2022/04/27 02:14:30;;;;;;;10.00;7.00;;;;;;;8.17;63.11;102339.72;5075942;28;20025;-61
2022/04/27 02:16:55;;;;;;;10.90;6.82;;;;;;;8.12;62.22;102333.38;5057452;28;20047;-61
2022/04/27 02:19:21;;;;;;;10.57;6.70;;;;;;;8.06;62.48;102330.47;5075091;28;20485;-61
2022/04/27 02:21:47;;;;;;;11.52;7.13;;;;;;;8.00;62.51;102329.34;5075008;28;20108;-61
2022/04/27 02:24:12;;;;;;;9.40;6.50;;;;;;;7.98;62.29;102341.53;5075015;28;20055;-61
2022/04/27 02:26:37;;;;;;;9.77;6.45;;;;;;;7.95;62.78;102340.50;5075100;28;20048;-61
2022/04/27 02:29:03;;;;;;;11.32;6.75;;;;;;;7.88;62.57;102341.97;5075205;28;20089;-62
2022/04/27 02:31:28;;;;;;;10.13;7.43;;;;;;;7.80;63.91;102339.81;5074877;28;20047;-61
2022/04/27 02:33:54;;;;;;;7.47;6.28;;;;;;;7.82;63.03;102351.31;5075101;28;20107;-61
2022/04/27 02:36:19;;;;;;;8.25;6.32;;;;;;;7.77;63.12;102348.47;5074910;28;20534;-61
2022/04/27 02:38:44;;;;;;;9.73;6.82;;;;;;;7.71;63.30;102348.19;5074833;28;20028;-62
2022/04/27 02:41:10;;;;;;;7.93;6.47;;;;;;;7.71;63.13;102342.94;5074556;28;20036;-61
2022/04/27 02:43:35;;;;;;;8.68;6.57;;;;;;;7.72;62.92;102350.88;5074754;28;20012;-61
2022/04/27 02:46:01;;;;;;;10.82;6.90;;;;;;;7.71;63.48;102346.44;5074657;28;20031;-61
2022/04/27 02:48:26;;;;;;;11.15;6.93;;;;;;;7.68;63.35;102346.31;5074731;28;20055;-61
2022/04/27 02:53:36;;;;;;;9.93;6.95;;;;;;;7.55;63.56;102348.28;5074741;28;20085;-62
2022/04/27 02:56:03;;;;;;;10.10;7.05;;;;;;;7.45;64.46;102350.50;5074636;28;20024;-61
2022/04/27 02:58:28;;;;;;;10.38;6.45;;;;;;;7.40;64.01;102351.97;5074683;28;20020;-61
2022/04/27 03:00:54;;;;;;;12.45;6.82;;;;;;;7.40;64.35;102353.72;5074359;28;20405;-61
2022/04/27 03:03:19;;;;;;;9.98;7.20;;;;;;;7.38;64.00;102351.03;5074327;28;20028;-61
2022/04/27 03:05:44;;;;;;;10.38;7.13;;;;;;;7.43;63.95;102356.50;5074340;28;20121;-61
2022/04/27 03:08:10;;;;;;;11.32;7.50;;;;;;;7.47;64.10;102356.72;5073744;28;20078;-62
2022/04/27 03:10:35;;;;;;;10.52;7.20;;;;;;;7.55;63.49;102364.97;5074101;28;20024;-61
2022/04/27 03:13:00;;;;;;;11.77;7.60;;;;;;;7.53;63.74;102366.63;5074102;28;20025;-61
2022/04/27 03:15:27;;;;;;;12.80;7.93;;;;;;;7.52;64.87;102364.81;5074263;28;20031;-61
2022/04/27 03:20:36;;;;;;;11.35;7.70;;;;;;;7.52;64.07;102360.47;5074138;28;20042;-61
2022/04/27 03:23:01;;;;;;;10.73;7.75;;;;;;;7.50;64.40;102367.38;5073808;28;20032;-61
2022/04/27 03:25:27;;;;;;;11.52;7.97;;;;;;;7.49;64.19;102355.06;5074092;28;20099;-61
2022/04/27 03:27:52;;;;;;;9.95;7.25;;;;;;;7.58;63.15;102358.94;5073855;28;20100;-61
2022/04/27 03:30:18;;;;;;;10.20;7.25;;;;;;;7.54;63.17;102357.91;5073598;28;20040;-62
2022/04/27 03:32:43;;;;;;;12.73;7.63;;;;;;;7.49;63.28;102364.66;5073813;28;20021;-61
2022/04/27 03:35:09;;;;;;;10.98;7.38;;;;;;;7.36;63.15;102357.03;5073957;28;20458;-61
2022/04/27 03:37:34;;;;;;;10.70;7.97;;;;;;;7.21;64.57;102357.19;5073600;28;20371;-62
2022/04/27 03:40:00;;;;;;;10.07;7.00;;;;;;;7.10;64.75;102375.06;5073596;28;20056;-61
2022/04/27 03:42:25;;;;;;;10.35;7.22;;;;;;;7.01;63.95;102361.47;5073465;28;20362;-61
2022/04/27 03:44:51;;;;;;;9.68;7.15;;;;;;;7.04;63.58;102372.13;5073518;28;20025;-62
2022/04/27 03:47:16;;;;;;;10.52;7.32;;;;;;;7.06;63.47;102380.97;5073563;28;20028;-61
2022/04/27 03:49:41;;;;;;;10.45;7.38;;;;;;;7.07;63.13;102377.56;5073467;28;20032;-61
2022/04/27 03:52:07;;;;;;;10.18;6.90;;;;;;;7.08;62.22;102375.81;5073487;28;20028;-61
2022/04/27 03:54:32;;;;;;;10.85;7.22;;;;;;;7.05;62.81;102376.56;5077324;28;20048;-62
2022/04/27 03:56:58;;;;;;;12.02;7.90;;;;;;;7.06;63.12;102377.47;5076149;28;20065;-61
2022/04/27 03:59:24;;;;;;;12.65;8.10;;;;;;;6.98;63.70;102378.00;5074127;28;20031;-61
2022/04/27 04:01:49;;;;;;;11.35;7.90;;;;;;;7.00;63.58;102384.22;5073520;28;20028;-61
2022/04/27 04:04:14;;;;;;;9.60;7.53;;;;;;;6.92;64.27;102387.28;5073589;28;20066;-61
2022/04/27 04:06:40;;;;;;;11.95;7.93;;;;;;;6.81;64.68;102399.91;5073439;28;20440;-61
2022/04/27 04:09:05;;;;;;;11.82;7.78;;;;;;;6.68;65.06;102397.44;5073112;28;20021;-62
2022/04/27 04:11:31;;;;;;;9.23;7.28;;;;;;;6.58;65.05;102398.69;5073236;28;20020;-61
2022/04/27 04:13:56;;;;;;;10.45;7.00;;;;;;;6.59;64.99;102402.22;5073123;28;20028;-61
2022/04/27 04:16:21;;;;;;;9.63;7.47;;;;;;;6.64;64.92;102395.50;5072670;28;20457;-61
2022/04/27 04:18:46;;;;;;;10.00;7.07;;;;;;;6.64;65.14;102396.41;5072594;28;20056;-61
2022/04/27 04:21:12;;;;;;;11.15;7.40;;;;;;;6.62;65.12;102408.53;5071868;28;20044;-61
2022/04/27 04:23:37;;;;;;;9.73;6.75;;;;;;;6.58;65.00;102406.56;5072375;28;20381;-62
2022/04/27 04:28:46;;;;;;;8.43;6.45;;;;;;;6.64;65.13;102411.28;5072555;28;20039;-62
2022/04/27 04:31:14;;;;;;;10.05;6.93;;;;;;;6.68;64.41;102408.88;5072469;28;20044;-61
2022/04/27 04:33:39;;;;;;;9.15;6.88;;;;;;;6.60;64.78;102404.06;5072466;28;20033;-62
2022/04/27 04:36:04;;;;;;;8.30;5.90;;;;;;;6.58;65.95;102424.97;5072485;28;20031;-62
2022/04/27 04:38:30;;;;;;;8.23;6.15;;;;;;;6.53;65.25;102421.19;5072514;28;20024;-61
2022/04/27 04:40:55;;;;;;;9.13;6.55;;;;;;;6.38;65.08;102423.94;5072136;28;20511;-62
2022/04/27 04:43:21;;;;;;;10.93;6.68;;;;;;;6.28;65.92;102424.25;5072108;28;20024;-61
2022/04/27 04:45:46;;;;;;;9.70;6.68;;;;;;;6.25;65.99;102427.63;5072259;28;20452;-62
2022/04/27 04:48:11;;;;;;;9.38;6.97;;;;;;;6.27;65.83;102433.84;5072419;28;20466;-62
2022/04/27 04:50:37;;;;;;;9.98;7.47;;;;;;;6.31;65.91;102437.53;5072244;28;20025;-62
2022/04/27 04:53:04;;;;;;;11.13;7.38;;;;;;;6.39;65.62;102440.59;5072415;28;20203;-61
2022/04/27 04:55:29;;;;;;;10.52;7.13;;;;;;;6.48;65.05;102441.06;5072170;28;20125;-61
2022/04/27 04:57:55;;;;;;;12.20;6.85;;;;;;;6.56;64.52;102446.72;5072393;28;20037;-61
2022/04/27 05:00:20;;;;;;;9.00;6.82;;;;;;;6.66;65.05;102439.41;5071989;28;20057;-61
2022/04/27 05:02:45;;;;;;;9.50;7.07;;;;;;;6.74;64.39;102443.34;5072122;28;20025;-61
2022/04/27 05:05:11;;;;;;;11.55;7.07;;;;;;;6.87;63.64;102447.50;5072108;28;20036;-61
2022/04/27 05:07:36;;;;;;;10.43;7.13;;;;;;;6.96;64.00;102444.44;5072043;28;20385;-62
2022/04/27 05:10:02;;;;;;;16.77;7.13;;;;;;;7.13;63.82;102447.91;5071938;28;20111;-61
2022/04/27 05:12:28;;;;;;;9.45;6.50;;;;;;;7.28;63.44;102446.06;5071789;28;20107;-61
2022/04/27 05:14:54;;;;;;;9.43;7.15;;;;;;;7.35;63.28;102440.25;5072300;28;20116;-61
2022/04/27 05:17:20;;;;;;;10.70;7.03;;;;;;;7.43;64.15;102445.91;5071931;28;20535;-61
2022/04/27 05:19:48;;;;;;;10.95;7.07;;;;;;;7.45;64.12;102449.50;5072049;28;20028;-61
2022/04/27 05:22:14;;;;;;;9.23;6.70;;;;;;;7.50;64.14;102453.28;5071781;28;20039;-61
2022/04/27 05:24:39;;;;;;;8.40;6.72;;;;;;;7.53;64.54;102449.06;5072010;28;20021;-62
2022/04/27 05:27:04;;;;;;;10.55;7.65;;;;;;;7.71;64.87;102456.97;5071614;28;20122;-61
2022/04/27 05:32:14;;;;;;;9.98;7.63;;;;;;;7.99;64.69;102463.53;5073422;28;20099;-61
2022/04/27 05:34:40;;;;;;;8.65;6.72;;;;;;;8.14;64.55;102466.00;5075569;28;20060;-61
2022/04/27 05:37:06;;;;;;;9.48;7.00;;;;;;;8.16;65.30;102470.47;5075426;28;20073;-62
2022/04/27 05:39:31;;;;;;;10.38;7.25;;;;;;;8.33;64.01;102478.28;5075116;28;20454;-62
2022/04/27 05:41:57;;;;;;;10.07;7.95;;;;;;;8.39;65.43;102483.84;5075290;28;20024;-61
2022/04/27 05:44:24;;;;;;;15.63;8.82;;;;;;;8.49;65.42;102489.63;5075220;28;20021;-62
2022/04/27 05:46:54;;;;;;;11.30;8.43;;;;;;;8.59;65.94;102488.28;5075410;28;20472;-62
2022/04/27 05:49:20;;;;;;;15.23;9.50;;;;;;;8.70;66.24;102486.16;5075192;28;20115;-61
2022/04/27 05:51:45;;;;;;;14.38;10.63;;;;;;;8.81;65.91;102483.97;5075349;28;20130;-62
2022/04/27 05:54:13;;;;;;;12.48;9.30;;;;;;;8.96;65.42;102485.56;5074852;28;20020;-61
2022/04/27 05:56:40;;;;;;;15.15;9.60;;;;;;;9.08;65.91;102493.09;5075106;28;20028;-61
2022/04/27 05:59:06;;;;;;;13.05;9.23;;;;;;;9.19;66.04;102486.53;5074991;28;20031;-62
2022/04/27 06:01:31;;;;;;;14.68;8.80;;;;;;;9.29;65.32;102487.81;5074971;28;20032;-61
2022/04/27 06:03:57;;;;;;;14.10;9.57;;;;;;;9.36;65.72;102489.88;5074847;28;20078;-62
2022/04/27 06:06:23;;;;;;;14.13;8.95;;;;;;;9.52;65.17;102491.44;5074704;28;20081;-62
2022/04/27 06:08:49;;;;;;;14.75;9.43;;;;;;;9.68;64.85;102493.88;5074695;28;20050;-62
2022/04/27 06:11:16;;;;;;;13.55;9.25;;;;;;;9.86;64.32;102488.44;5074722;28;20044;-61
2022/04/27 06:13:41;;;;;;;13.60;9.02;;;;;;;10.10;63.94;102493.75;5074783;28;20040;-61
2022/04/27 06:16:07;;;;;;;15.27;9.25;;;;;;;10.24;63.92;102505.81;5074633;28;20027;-61
2022/04/27 06:18:32;;;;;;;14.05;9.63;;;;;;;10.36;63.48;102508.00;5074944;28;20027;-61
2022/04/27 06:20:58;;;;;;;13.18;9.07;;;;;;;10.48;63.04;102504.94;5074502;28;20029;-61
2022/04/27 06:23:23;;;;;;;15.00;8.90;;;;;;;10.56;62.23;102503.50;5074564;28;20032;-61
2022/04/27 06:25:49;;;;;;;13.50;9.02;;;;;;;10.76;61.78;102505.13;5074339;28;20028;-62
2022/04/27 06:28:18;;;;;;;12.70;8.70;;;;;;;11.02;61.65;102510.47;5074435;28;20127;-61
2022/04/27 06:30:45;;;;;;;17.88;9.02;;;;;;;11.15;61.37;102512.69;5074241;28;20052;-62
2022/04/27 06:33:10;;;;;;;13.43;8.38;;;;;;;11.26;61.43;102513.97;5074441;28;20028;-61
2022/04/27 06:35:35;;;;;;;12.95;8.43;;;;;;;11.42;60.50;102523.31;5074560;28;20031;-61
2022/04/27 06:38:01;;;;;;;12.63;8.32;;;;;;;11.50;60.13;102516.53;5074452;28;20039;-61
2022/04/27 06:40:26;;;;;;;14.00;8.07;;;;;;;11.64;58.84;102516.09;5074383;28;20041;-61
2022/04/27 06:42:53;;;;;;;15.85;8.77;;;;;;;11.83;58.99;102521.19;5073615;28;20079;-62
2022/04/27 06:45:18;;;;;;;12.40;8.55;;;;;;;12.10;58.58;102520.28;5074098;28;20055;-61
2022/04/27 06:47:44;;;;;;;13.70;8.48;;;;;;;12.25;57.13;102520.75;5074245;28;20017;-62
2022/04/27 06:50:12;;;;;;;14.25;7.53;;;;;;;12.49;56.04;102520.59;5074094;28;20493;-62
2022/04/27 06:52:47;;;;;;;12.05;7.95;;;;;;;12.73;55.91;102528.38;5074089;28;20382;-61
2022/04/27 06:55:15;;;;;;;13.68;7.80;;;;;;;12.86;54.38;102529.63;5073932;28;20025;-62
2022/04/27 06:57:40;;;;;;;13.35;7.10;;;;;;;13.04;52.58;102528.38;5069333;28;20017;-62
2022/04/27 07:00:08;;;;;;;12.45;7.68;;;;;;;13.15;52.88;102534.00;5074690;28;20040;-61
2022/04/27 07:02:34;;;;;;;12.27;7.25;;;;;;;13.31;52.16;102534.41;5075467;28;20028;-62
2022/04/27 07:05:01;;;;;;;15.80;7.35;;;;;;;13.55;51.94;102531.50;5078676;28;20043;-62
2022/04/27 07:07:27;;;;;;;14.43;7.90;;;;;;;13.69;52.14;102523.03;5073949;28;20020;-62
2022/04/27 07:09:53;;;;;;;12.57;7.45;;;;;;;13.88;50.81;102531.47;5073559;28;20482;-62
2022/04/27 07:12:19;;;;;;;10.50;7.15;;;;;;;14.03;49.71;102534.47;5073672;28;20082;-62
2022/04/27 07:14:46;;;;;;;13.55;7.00;;;;;;;14.23;50.85;102535.84;5073361;28;20058;-62
2022/04/27 07:17:11;;;;;;;15.13;6.78;;;;;;;14.34;48.57;102533.41;5073595;28;20025;-62
2022/04/27 07:19:36;;;;;;;12.23;6.63;;;;;;;14.50;48.29;102534.69;5073248;28;20112;-62
2022/04/27 07:22:02;;;;;;;12.10;6.50;;;;;;;14.80;47.43;102537.09;5073445;28;20024;-62
2022/04/27 07:24:28;;;;;;;12.10;7.10;;;;;;;15.02;47.57;102531.31;5073066;28;20024;-62
2022/04/27 07:26:53;;;;;;;12.82;6.05;;;;;;;15.17;45.63;102533.38;5073468;28;20040;-62
2022/04/27 07:29:19;;;;;;;15.07;6.13;;;;;;;15.15;45.21;102537.78;5073301;28;20354;-62
2022/04/27 07:31:45;;;;;;;9.63;6.00;;;;;;;15.38;44.26;102545.31;5072861;28;20064;-62
2022/04/27 07:34:11;;;;;;;11.10;6.00;;;;;;;15.59;43.73;102548.38;5073294;28;20121;-62
2022/04/27 07:36:36;;;;;;;9.07;5.60;;;;;;;15.62;43.46;102545.72;5073114;28;20075;-62
2022/04/27 07:39:01;;;;;;;13.38;6.13;;;;;;;15.67;43.45;102545.84;5073113;28;20017;-61
2022/04/27 07:41:27;;;;;;;10.30;6.20;;;;;;;15.83;43.64;102552.31;5072696;28;20075;-62
2022/04/27 07:43:52;;;;;;;13.52;5.78;;;;;;;15.94;41.88;102543.63;5073002;28;20028;-62
2022/04/27 07:46:17;;;;;;;12.45;5.70;;;;;;;16.14;41.08;102551.94;5072898;28;20021;-62
2022/04/27 07:48:43;;;;;;;10.63;6.10;;;;;;;16.22;41.60;102555.59;5072899;28;20024;-63
2022/04/27 07:51:08;;;;;;;9.63;5.20;;;;;;;16.45;39.77;102555.06;5072851;28;20081;-62
2022/04/27 07:53:34;;;;;;;8.73;4.80;;;;;;;16.61;37.99;102558.81;5073094;28;20035;-62
2022/04/27 07:55:59;;;;;;;10.68;5.00;;;;;;;16.60;37.48;102552.59;5072640;28;20027;-62
2022/04/27 07:58:24;;;;;;;9.65;5.35;;;;;;;16.80;38.01;102555.56;5072552;28;20095;-62
2022/04/27 08:00:50;;;;;;;11.48;5.10;;;;;;;17.00;37.36;102564.72;5072963;28;20159;-62
2022/04/27 08:03:16;;;;;;;8.20;4.40;;;;;;;17.07;36.56;102554.97;5072553;28;20381;-62
2022/04/27 08:05:41;;;;;;;7.22;4.10;;;;;;;17.20;36.49;102561.34;5070498;28;20024;-61
2022/04/27 08:08:08;;;;;;;8.07;4.30;;;;;;;17.33;35.90;102568.63;5072317;28;20488;-62
2022/04/27 08:10:34;;;;;;;7.85;4.40;;;;;;;17.42;36.63;102567.81;5072507;28;20039;-62
2022/04/27 08:13:00;;;;;;;6.78;4.68;;;;;;;17.61;36.08;102560.88;5072330;28;20095;-62
2022/04/27 08:15:25;;;;;;;9.90;4.82;;;;;;;17.71;36.30;102565.41;5072534;28;20024;-61
2022/04/27 08:17:51;;;;;;;6.85;4.05;;;;;;;18.04;33.79;102563.94;5072327;28;20078;-62
2022/04/27 08:23:05;;;;;;;8.00;3.47;;;;;;;18.25;32.64;102577.47;5072353;28;20081;-62
2022/04/27 08:25:31;;;;;;;10.07;4.50;;;;;;;18.33;33.69;102580.16;5072356;28;20035;-62
2022/04/27 08:27:56;;;;;;;7.95;4.43;;;;;;;18.46;32.67;102574.94;5072398;28;20469;-62
2022/04/27 08:30:21;;;;;;;6.13;4.20;;;;;;;18.51;32.67;102577.63;5072357;28;20068;-62
2022/04/27 08:32:47;;;;;;;8.57;4.57;;;;;;;18.56;32.72;102577.66;5072434;28;20453;-62
2022/04/27 08:35:12;;;;;;;7.78;3.90;;;;;;;18.55;32.04;102578.53;5072214;28;20023;-62
2022/04/27 08:37:37;;;;;;;6.53;3.63;;;;;;;18.60;32.90;102582.13;5072407;28;20040;-62
2022/04/27 08:40:05;;;;;;;6.15;3.75;;;;;;;18.77;32.44;102572.44;5072212;28;20115;-62
2022/04/27 08:42:30;;;;;;;7.63;4.15;;;;;;;18.75;32.15;102584.91;5072277;28;20103;-62
2022/04/27 08:44:56;;;;;;;7.63;4.00;;;;;;;18.95;31.74;102587.69;5072306;28;20025;-62
2022/04/27 08:47:23;;;;;;;9.40;3.88;;;;;;;18.97;31.91;102591.25;5072309;28;20449;-62
2022/04/27 08:49:48;;;;;;;14.27;4.43;;;;;;;19.08;30.98;102583.25;5072334;28;20127;-62
2022/04/27 08:52:15;;;;;;;9.75;4.05;;;;;;;19.16;30.54;102586.88;5072276;28;20100;-62
2022/04/27 08:54:41;;;;;;;8.38;4.05;;;;;;;19.34;30.99;102584.22;5072380;28;20151;-62
2022/04/27 08:57:06;;;;;;;7.55;4.10;;;;;;;19.49;30.41;102586.94;5071946;28;20473;-61
2022/04/27 08:59:32;;;;;;;9.95;4.20;;;;;;;19.69;29.86;102584.31;5072079;28;20078;-62
2022/04/27 09:01:57;;;;;;;7.45;4.40;;;;;;;19.69;30.53;102588.78;5072303;28;20406;-62
2022/04/27 09:04:23;;;;;;;10.20;4.38;;;;;;;19.85;30.52;102585.22;5072250;28;20367;-62
2022/04/27 09:06:49;;;;;;;7.97;4.43;;;;;;;19.82;30.01;102585.19;5073192;28;20098;-62
2022/04/27 09:09:36;;;;;;;10.68;4.72;;;;;;;20.17;30.16;102579.84;5076150;28;20025;-62
2022/04/27 09:12:07;;;;;;;7.88;4.50;;;;;;;20.26;29.76;102585.19;5076019;28;20029;-63
2022/04/27 09:14:38;;;;;;;8.10;4.50;;;;;;;20.36;29.30;102583.38;5075934;28;20020;-62
2022/04/27 09:22:44;;;;;;;8.07;4.40;;;;;;;20.97;27.94;102585.00;5075887;28;20048;-62
2022/04/27 09:25:10;;;;;;;9.02;4.57;;;;;;;20.93;27.19;102580.53;5075724;28;20059;-62
2022/04/27 09:27:35;;;;;;;9.27;4.70;;;;;;;21.19;27.27;102586.66;5075572;28;20021;-62
2022/04/27 09:30:07;;;;;;;10.40;4.53;;;;;;;21.07;27.12;102588.50;5075349;28;20036;-62
2022/04/27 09:32:34;;;;;;;7.70;4.40;;;;;;;20.98;27.92;102586.75;5075528;28;20123;-62
2022/04/27 09:35:02;;;;;;;10.57;4.65;;;;;;;20.86;28.14;102579.69;5075404;28;20025;-62
2022/04/27 09:37:30;;;;;;;8.32;4.30;;;;;;;20.85;28.35;102571.59;5075558;28;20030;-62
2022/04/27 09:40:02;;;;;;;7.50;4.47;;;;;;;20.94;27.80;102580.53;5075330;28;20111;-62
2022/04/27 09:42:34;;;;;;;;;;;;;;;21.24;28.40;102589.31;5075899;28;20035;-62
2022/04/27 09:45:21;;;;;;;7.53;4.60;;;;;;;21.35;28.94;102589.31;5075603;28;19908;-62
2022/04/27 09:47:53;;;;;;;7.13;4.90;;;;;;;21.40;26.54;102584.78;5075370;28;20684;-62
2022/04/27 09:50:19;;;;;;;7.82;4.75;;;;;;;21.60;27.29;102581.97;5074599;28;20028;-63
2022/04/27 09:52:44;;;;;;;10.32;4.90;;;;;;;21.65;27.19;102588.19;5095586;28;20032;-62
2022/04/27 09:55:10;;;;;;;7.93;4.70;;;;;;;21.77;25.21;102584.53;5095382;28;20031;-62
2022/04/27 09:57:41;;;;;;;12.15;4.85;;;;;;;21.91;27.02;102578.09;5095373;28;20319;-62
2022/04/27 10:00:08;;;;;;;8.82;4.60;;;;;;;21.99;25.75;102588.81;5095124;28;20495;-62
2022/04/27 10:02:34;;;;;;;8.40;4.65;;;;;;;22.13;27.03;102581.53;5095086;28;20042;-62
2022/04/27 10:05:00;;;;;;;7.00;4.40;;;;;;;22.37;25.59;102584.91;5095322;28;20055;-62
2022/04/27 10:07:27;;;;;;;7.35;4.80;;;;;;;22.42;25.75;102588.44;5095239;28;20039;-62
2022/04/27 10:09:54;;;;;;;10.27;5.20;;;;;;;22.49;24.59;102593.75;5095586;28;20526;-62
2022/04/27 10:12:19;;;;;;;8.60;5.55;;;;;;;22.38;24.95;102590.25;5096018;28;20034;-62
2022/04/27 10:14:45;;;;;;;16.13;5.10;;;;;;;21.76;26.55;102575.56;5096217;28;20110;-62
2022/04/27 10:17:15;;;;;;;8.23;4.88;;;;;;;21.25;26.79;102585.75;5095177;28;20016;-61
2022/04/27 10:19:47;;;;;;;9.68;5.20;;;;;;;21.29;27.01;102575.88;5094032;28;20048;-61
2022/04/27 10:22:31;;;;;;;8.35;5.13;;;;;;;22.12;27.29;102578.81;5095290;28;20024;-62
2022/04/27 10:25:03;;;;;;;7.93;5.05;;;;;;;22.45;26.12;102578.53;5094855;28;20465;-62
2022/04/27 10:27:38;;;;;;;8.80;5.22;;;;;;;22.56;25.11;102574.78;5094770;28;20028;-62
2022/04/27 10:30:11;;;;;;;9.65;5.28;;;;;;;22.63;25.69;102572.03;5094834;28;20024;-62
2022/04/27 10:32:47;;;;;;;9.43;5.57;;;;;;;22.62;25.87;102562.16;5094816;28;20028;-61
2022/04/27 10:35:14;;;;;;;8.90;5.70;;;;;;;22.33;25.29;102569.69;5094726;28;20020;-62
2022/04/27 10:38:02;;;;;;;11.25;5.55;;;;;;;22.11;26.12;102572.56;5094342;28;20038;-62
2022/04/27 10:40:35;;;;;;;10.13;5.95;;;;;;;21.82;25.78;102570.13;5094675;28;20070;-62
2022/04/27 10:43:08;;;;;;;9.13;5.68;;;;;;;21.71;26.49;102563.94;5094484;28;20035;-62
2022/04/27 10:45:38;;;;;;;9.52;6.00;;;;;;;21.53;27.05;102564.97;5094606;28;20093;-62
2022/04/27 10:48:14;;;;;;;9.02;5.97;;;;;;;21.43;26.16;102556.06;5094324;28;20032;-62
2022/04/27 10:50:39;;;;;;;12.25;6.00;;;;;;;21.73;25.97;102564.81;5092018;28;20048;-62
2022/04/27 10:53:14;;;;;;;11.02;5.65;;;;;;;22.07;25.73;102561.84;5094601;28;20032;-61
2022/04/27 10:55:41;;;;;;;8.95;5.82;;;;;;;22.45;25.59;102564.16;5093999;28;20028;-62
2022/04/27 10:58:22;;;;;;;8.70;6.00;;;;;;;22.29;26.43;102562.53;5075954;28;20498;-62
2022/04/27 11:01:02;;;;;;;10.93;5.60;;;;;;;22.44;26.71;102565.97;5093974;28;20120;-62
2022/04/27 11:03:38;;;;;;;9.40;5.57;;;;;;;22.54;26.75;102555.97;5094175;28;20020;-62
2022/04/27 11:06:05;;;;;;;11.18;5.43;;;;;;;22.83;25.90;102565.50;5093920;28;20032;-62
2022/04/27 11:08:49;;;;;;;10.05;5.05;;;;;;;23.26;26.04;102557.75;5094078;28;20032;-62
2022/04/27 11:11:18;;;;;;;9.02;5.68;;;;;;;23.61;25.15;102556.31;5093619;28;20078;-62
2022/04/27 11:13:45;;;;;;;8.65;5.78;;;;;;;23.81;23.52;102561.38;5075731;28;20135;-62
2022/04/27 11:16:13;;;;;;;9.20;6.07;;;;;;;23.56;24.12;102550.97;5093887;28;20039;-62
2022/04/27 11:18:52;;;;;;;13.10;5.65;;;;;;;23.17;24.75;102553.38;5093787;28;20020;-62
2022/04/27 11:21:18;;;;;;;8.18;5.78;;;;;;;22.79;24.95;102556.56;5093512;28;20059;-62
2022/04/27 11:23:44;;;;;;;10.77;5.45;;;;;;;23.03;24.93;102552.66;5093632;28;20475;-62
2022/04/27 11:26:10;;;;;;;9.77;6.05;;;;;;;22.99;24.00;102554.50;5093876;28;20028;-62
2022/04/27 11:28:39;;;;;;;12.15;5.82;;;;;;;23.28;24.45;102552.31;5093605;28;20024;-62
2022/04/27 11:31:06;;;;;;;10.32;5.82;;;;;;;23.36;24.13;102550.41;5093165;28;20032;-62
2022/04/27 11:33:31;;;;;;;9.30;6.10;;;;;;;23.66;23.77;102554.44;5093524;28;20020;-62
2022/04/27 11:35:57;;;;;;;9.90;5.90;;;;;;;23.83;23.21;102546.94;5093754;28;20103;-62
2022/04/27 11:38:36;;;;;;;8.82;5.40;;;;;;;24.26;23.64;102545.28;5093390;28;20112;-62
2022/04/27 11:41:02;;;;;;;10.63;5.47;;;;;;;24.31;23.22;102549.66;5093304;28;20027;-62
2022/04/27 11:43:28;;;;;;;9.98;5.55;;;;;;;24.47;22.86;102550.28;5093161;28;20457;-62
2022/04/27 11:45:57;;;;;;;8.60;5.20;;;;;;;24.32;23.41;102547.84;5093560;28;20040;-62
2022/04/27 11:48:23;;;;;;;10.35;6.22;;;;;;;24.68;22.00;102552.56;5093234;28;20032;-63